Time;durP1;ratioP1;P1;durP2;ratioP2;P2;SDS_P1;SDS_P2;PMS_P1;PMS_P2;Temp;Humidity;BMP_temperature;BMP_pressure;BME280_temperature;BME280_humidity;BME280_pressure;Samples;Min_cycle;Max_cycle;Signal;HPM_P1;HPM_P2
2022/05/11 00:00:29;;;;;;;11.10;6.32;;;13.40;99.90;;;;;;5031735;28;20556;-85
2022/05/11 00:02:55;;;;;;;12.18;6.60;;;13.30;99.90;;;;;;5000742;28;20044;-86
2022/05/11 00:05:21;;;;;;;10.98;6.63;;;13.30;99.90;;;;;;5016998;28;20056;-85
2022/05/11 00:07:48;;;;;;;9.38;6.45;;;13.30;99.90;;;;;;5015396;28;20057;-86
2022/05/11 00:10:14;;;;;;;11.00;5.97;;;13.30;99.90;;;;;;5016145;28;20057;-86
2022/05/11 00:12:42;;;;;;;11.02;6.30;;;13.40;99.90;;;;;;5017256;28;20049;-84
2022/05/11 00:15:12;;;;;;;11.10;6.38;;;13.40;99.90;;;;;;5001685;28;20073;-85
2022/05/11 00:17:38;;;;;;;8.55;6.32;;;13.40;99.90;;;;;;5016658;28;20403;-85
2022/05/11 00:20:06;;;;;;;9.75;5.85;;;13.40;99.90;;;;;;4998463;28;20045;-84
2022/05/11 00:22:33;;;;;;;8.30;5.75;;;13.40;99.90;;;;;;5028187;28;20064;-85
2022/05/11 00:24:58;;;;;;;9.85;5.72;;;13.40;99.90;;;;;;5031436;28;20130;-84
2022/05/11 00:27:24;;;;;;;9.32;5.70;;;13.40;99.90;;;;;;5017659;28;20100;-84
2022/05/11 00:29:50;;;;;;;12.95;6.55;;;13.40;99.90;;;;;;5002248;28;20052;-84
2022/05/11 00:32:16;;;;;;;10.63;5.80;;;13.40;99.90;;;;;;5015839;28;20061;-84
2022/05/11 00:34:41;;;;;;;9.48;5.30;;;13.40;99.90;;;;;;5032161;28;20045;-84
2022/05/11 00:37:07;;;;;;;6.80;5.60;;;13.40;99.90;;;;;;5018281;28;20111;-84
2022/05/11 00:39:36;;;;;;;9.95;5.05;;;13.30;99.90;;;;;;5016997;28;20505;-84
2022/05/11 00:42:04;;;;;;;8.65;5.40;;;13.40;99.90;;;;;;5032468;28;20146;-84
2022/05/11 00:44:30;;;;;;;8.23;5.32;;;13.40;99.90;;;;;;5033438;28;20486;-85
2022/05/11 00:47:14;;;;;;;9.10;5.20;;;13.30;99.90;;;;;;5016728;28;20040;-85
2022/05/11 00:49:45;;;;;;;8.18;4.85;;;13.40;99.90;;;;;;5013552;28;20040;-84
2022/05/11 00:52:18;;;;;;;8.55;5.82;;;13.30;99.90;;;;;;5016709;28;20182;-84
2022/05/11 00:55:00;;;;;;;9.48;4.72;;;13.30;99.90;;;;;;5043019;28;20095;-83
2022/05/11 00:57:30;;;;;;;10.75;5.10;;;13.40;99.90;;;;;;5032742;28;20088;-84
2022/05/11 00:59:58;;;;;;;12.52;5.63;;;13.30;99.90;;;;;;5041799;28;20099;-84
2022/05/11 01:02:24;;;;;;;8.07;4.85;;;13.30;99.90;;;;;;5030790;28;20041;-85
2022/05/11 01:04:54;;;;;;;7.22;4.90;;;13.30;99.90;;;;;;5001434;28;20508;-84
2022/05/11 01:07:19;;;;;;;7.20;4.72;;;13.30;99.90;;;;;;5031824;28;20045;-84
2022/05/11 01:09:45;;;;;;;7.88;4.90;;;13.20;99.90;;;;;;4999782;28;20118;-85
2022/05/11 01:12:14;;;;;;;6.55;4.50;;;13.20;99.90;;;;;;5030254;28;20470;-85
2022/05/11 01:14:42;;;;;;;9.77;5.03;;;13.20;99.90;;;;;;5017960;28;20051;-84
2022/05/11 01:17:10;;;;;;;6.60;4.38;;;13.10;99.90;;;;;;5032864;28;20086;-85
2022/05/11 01:19:40;;;;;;;8.40;4.50;;;13.10;99.90;;;;;;5010307;28;20104;-86
2022/05/11 01:22:27;;;;;;;8.38;5.03;;;13.10;99.90;;;;;;5032686;28;20038;-85
2022/05/11 01:24:52;;;;;;;7.60;4.70;;;13.10;99.90;;;;;;5031595;28;20077;-85
2022/05/11 01:27:37;;;;;;;6.85;4.50;;;13.10;99.90;;;;;;5000876;28;20347;-86
2022/05/11 01:30:22;;;;;;;9.27;4.40;;;13.10;99.90;;;;;;5039992;28;20136;-86
2022/05/11 01:32:50;;;;;;;8.18;4.80;;;13.10;99.90;;;;;;5017172;28;20049;-86
2022/05/11 01:35:28;;;;;;;10.05;4.25;;;13.10;99.90;;;;;;5036712;28;20517;-86
2022/05/11 01:38:17;;;;;;;7.95;5.22;;;13.10;99.90;;;;;;5027711;28;20072;-85
2022/05/11 01:40:43;;;;;;;10.38;4.78;;;13.10;99.90;;;;;;5030714;28;20048;-84
2022/05/11 01:43:21;;;;;;;8.55;4.70;;;13.10;99.90;;;;;;5041693;28;20403;-84
2022/05/11 01:45:47;;;;;;;7.15;4.85;;;13.20;99.90;;;;;;5025937;28;20049;-85
2022/05/11 01:48:13;;;;;;;9.85;4.82;;;13.20;99.90;;;;;;5045207;28;20075;-85
2022/05/11 01:50:38;;;;;;;8.45;4.88;;;13.20;99.90;;;;;;5009058;28;20049;-84
2022/05/11 01:53:05;;;;;;;7.30;5.07;;;13.20;99.90;;;;;;5007532;28;20431;-84
2022/05/11 01:55:33;;;;;;;10.93;4.85;;;13.20;99.90;;;;;;5028545;28;20101;-84
2022/05/11 01:57:59;;;;;;;12.35;5.00;;;13.20;99.90;;;;;;5020179;28;20045;-85
2022/05/11 02:00:25;;;;;;;6.38;4.75;;;13.20;99.90;;;;;;5036171;28;20479;-84
2022/05/11 02:02:51;;;;;;;5.82;4.38;;;13.20;99.90;;;;;;5021048;28;20049;-84
2022/05/11 02:08:01;;;;;;;9.30;5.32;;;13.20;99.90;;;;;;5035452;28;20065;-83
2022/05/11 02:10:27;;;;;;;8.32;4.82;;;13.10;99.90;;;;;;5029626;28;20051;-84
2022/05/11 02:12:55;;;;;;;6.90;4.78;;;13.10;99.90;;;;;;5005097;28;20053;-85
2022/05/11 02:15:21;;;;;;;8.52;4.80;;;13.20;99.90;;;;;;5020421;28;20045;-84
2022/05/11 02:17:47;;;;;;;9.20;4.20;;;13.20;99.90;;;;;;5036133;28;20052;-84
2022/05/11 02:20:15;;;;;;;6.57;4.40;;;13.20;99.90;;;;;;5028728;28;20136;-84
2022/05/11 02:22:42;;;;;;;10.82;4.63;;;13.20;99.90;;;;;;5036173;28;20056;-83
2022/05/11 02:25:09;;;;;;;7.97;4.70;;;13.20;99.90;;;;;;5002126;28;20066;-84
2022/05/11 02:27:35;;;;;;;8.48;4.68;;;13.20;99.90;;;;;;5023097;28;20110;-84
2022/05/11 02:30:02;;;;;;;9.75;5.18;;;13.20;99.90;;;;;;5004844;28;20545;-85
2022/05/11 02:32:28;;;;;;;6.45;4.75;;;13.20;99.90;;;;;;5016682;28;20044;-84
2022/05/11 02:35:12;;;;;;;11.85;4.80;;;13.20;99.90;;;;;;5036543;28;20045;-84
2022/05/11 02:37:43;;;;;;;7.00;4.40;;;13.20;99.90;;;;;;5019047;28;20049;-84
2022/05/11 02:40:11;;;;;;;9.68;4.65;;;13.20;99.90;;;;;;5042636;28;20053;-84
2022/05/11 02:42:37;;;;;;;10.35;4.65;;;13.30;99.90;;;;;;5018307;28;20037;-84
2022/05/11 02:45:04;;;;;;;12.25;4.70;;;13.20;99.90;;;;;;5002698;28;20046;-84
2022/05/11 02:47:30;;;;;;;9.00;4.68;;;13.20;99.90;;;;;;5019798;28;20048;-83
2022/05/11 02:49:55;;;;;;;9.30;5.00;;;13.20;99.90;;;;;;5017876;28;20176;-84
2022/05/11 02:52:21;;;;;;;8.48;5.60;;;13.20;99.90;;;;;;5037605;28;20482;-83
2022/05/11 02:54:48;;;;;;;7.38;5.13;;;13.20;99.90;;;;;;5020185;28;20132;-86
2022/05/11 02:57:15;;;;;;;10.10;5.50;;;13.30;99.90;;;;;;5000254;28;20053;-86
2022/05/11 02:59:41;;;;;;;12.85;5.63;;;13.30;99.90;;;;;;5020116;28;20108;-85
2022/05/11 03:02:07;;;;;;;10.30;5.00;;;13.30;99.90;;;;;;5032558;28;20409;-85
2022/05/11 03:04:32;;;;;;;10.95;5.28;;;13.20;99.90;;;;;;5002386;28;20048;-86
2022/05/11 03:06:58;;;;;;;7.05;4.95;;;13.20;99.90;;;;;;5022542;28;20128;-85
2022/05/11 03:09:24;;;;;;;10.75;5.38;;;13.20;99.90;;;;;;5034609;28;20115;-84
2022/05/11 03:11:49;;;;;;;10.85;5.45;;;13.30;99.90;;;;;;5000407;28;20052;-84
2022/05/11 03:14:15;;;;;;;8.32;4.95;;;13.20;99.90;;;;;;5018649;28;20052;-85
2022/05/11 03:16:41;;;;;;;10.60;6.22;;;13.30;99.90;;;;;;5015303;28;20049;-84
2022/05/11 03:19:07;;;;;;;9.38;5.20;;;13.30;99.90;;;;;;5018338;28;20045;-83
2022/05/11 03:21:33;;;;;;;11.75;5.63;;;13.30;99.90;;;;;;5000557;28;20041;-84
2022/05/11 03:24:00;;;;;;;6.95;4.70;;;13.30;99.90;;;;;;5015468;28;20576;-84
2022/05/11 03:26:26;;;;;;;9.40;5.30;;;13.30;99.90;;;;;;5003803;28;20053;-84
2022/05/11 03:28:52;;;;;;;9.82;5.10;;;13.30;99.90;;;;;;5034142;28;20053;-85
2022/05/11 03:31:19;;;;;;;9.65;4.82;;;13.30;99.90;;;;;;4994912;28;20056;-84
2022/05/11 03:36:29;;;;;;;11.38;4.93;;;13.30;99.90;;;;;;5058605;28;20628;-85
2022/05/11 03:38:55;;;;;;;11.32;4.97;;;13.30;99.90;;;;;;5003489;28;20152;-85
2022/05/11 03:41:21;;;;;;;7.80;4.90;;;13.30;99.90;;;;;;5016426;28;20062;-84
2022/05/11 03:43:47;;;;;;;8.00;4.32;;;13.30;99.90;;;;;;5017809;28;20045;-85
2022/05/11 03:46:13;;;;;;;7.78;4.30;;;13.30;99.90;;;;;;5018705;28;20155;-85
2022/05/11 03:48:39;;;;;;;8.68;4.75;;;13.30;99.90;;;;;;5042749;28;20052;-85
2022/05/11 03:51:05;;;;;;;9.65;4.55;;;13.30;99.90;;;;;;5016621;28;20092;-84
2022/05/11 03:53:32;;;;;;;7.93;4.40;;;13.40;99.90;;;;;;5033489;28;20437;-84
2022/05/11 03:55:57;;;;;;;8.60;4.13;;;13.40;99.90;;;;;;5033999;28;20057;-84
2022/05/11 03:58:23;;;;;;;11.93;4.60;;;13.40;99.90;;;;;;5030500;28;20060;-84
2022/05/11 04:00:49;;;;;;;11.63;4.53;;;13.40;99.90;;;;;;5034262;28;20049;-85
2022/05/11 04:03:15;;;;;;;7.85;4.18;;;13.40;99.90;;;;;;5000771;28;20406;-85
2022/05/11 04:05:41;;;;;;;8.80;4.63;;;13.40;99.90;;;;;;5032736;28;20052;-85
2022/05/11 04:08:07;;;;;;;7.40;3.97;;;13.40;99.90;;;;;;5035563;28;20041;-84
2022/05/11 04:10:33;;;;;;;7.90;3.92;;;13.40;99.90;;;;;;5017404;28;20535;-84
2022/05/11 04:13:03;;;;;;;8.00;4.32;;;13.50;99.90;;;;;;5058899;28;20095;-84
2022/05/11 04:15:30;;;;;;;12.05;4.38;;;13.50;99.90;;;;;;5016192;28;20056;-83
2022/05/11 04:17:56;;;;;;;9.77;4.43;;;13.50;99.90;;;;;;5033091;28;20128;-84
2022/05/11 04:20:21;;;;;;;9.93;4.25;;;13.50;99.90;;;;;;5013264;28;20139;-84
2022/05/11 04:22:48;;;;;;;7.22;4.03;;;13.60;99.90;;;;;;5033669;28;20049;-84
2022/05/11 04:25:15;;;;;;;8.05;4.85;;;13.60;99.90;;;;;;5032981;28;20099;-85
2022/05/11 04:27:43;;;;;;;10.43;4.53;;;13.60;99.90;;;;;;5032047;28;20163;-85
2022/05/11 04:30:09;;;;;;;9.80;4.03;;;13.60;99.90;;;;;;5013941;28;20552;-84
2022/05/11 04:32:34;;;;;;;11.95;4.00;;;13.70;99.90;;;;;;5016287;28;20432;-85
2022/05/11 04:35:01;;;;;;;9.20;4.22;;;13.70;99.90;;;;;;5015950;28;20084;-84
2022/05/11 04:37:27;;;;;;;9.93;3.92;;;13.70;99.90;;;;;;5035804;28;20525;-85
2022/05/11 04:39:53;;;;;;;7.70;4.22;;;13.70;99.90;;;;;;5034446;28;20052;-85
2022/05/11 04:42:19;;;;;;;8.90;4.80;;;13.80;99.90;;;;;;5034057;28;20050;-85
2022/05/11 04:44:44;;;;;;;10.32;5.05;;;13.80;99.90;;;;;;4984675;28;20530;-85
2022/05/11 04:47:13;;;;;;;7.63;4.10;;;13.80;99.90;;;;;;5032277;28;20077;-85
2022/05/11 04:49:40;;;;;;;9.60;4.47;;;13.80;99.90;;;;;;5028720;28;20033;-84
2022/05/11 04:52:09;;;;;;;7.68;4.00;;;13.80;99.90;;;;;;5041803;28;20099;-84
2022/05/11 04:54:48;;;;;;;9.80;4.90;;;13.90;99.90;;;;;;5015389;28;20155;-86
2022/05/11 04:57:16;;;;;;;13.90;4.82;;;13.90;99.90;;;;;;5032704;28;20054;-85
2022/05/11 04:59:42;;;;;;;9.65;5.35;;;13.90;99.90;;;;;;5041573;28;20370;-86
2022/05/11 05:02:18;;;;;;;10.65;4.05;;;13.90;99.90;;;;;;5000576;28;20045;-85
2022/05/11 05:04:44;;;;;;;11.55;4.50;;;14.00;99.90;;;;;;5032450;28;20152;-86
2022/05/11 05:07:10;;;;;;;9.48;4.63;;;14.00;99.90;;;;;;5019762;28;20525;-87
2022/05/11 05:09:36;;;;;;;8.23;4.68;;;14.10;99.90;;;;;;5018808;28;20048;-87
2022/05/11 05:12:02;;;;;;;12.55;4.57;;;14.20;99.90;;;;;;5032685;28;20052;-89
2022/05/11 05:14:28;;;;;;;11.27;4.55;;;14.30;99.90;;;;;;5031894;28;21049;-88
2022/05/11 05:17:00;;;;;;;7.55;4.30;;;14.30;99.90;;;;;;5016392;28;20049;-87
2022/05/11 05:19:26;;;;;;;9.45;4.38;;;14.30;99.90;;;;;;5031552;28;20099;-84
2022/05/11 05:21:52;;;;;;;9.15;4.50;;;14.40;99.90;;;;;;5021901;28;20056;-84
2022/05/11 05:24:17;;;;;;;10.30;4.07;;;14.50;99.90;;;;;;5019542;28;20182;-84
2022/05/11 05:26:43;;;;;;;8.45;4.43;;;14.60;99.90;;;;;;5013204;28;20123;-84
2022/05/11 05:31:53;;;;;;;11.00;4.88;;;14.70;99.90;;;;;;5018587;28;20107;-84
2022/05/11 05:34:19;;;;;;;11.23;4.57;;;14.70;99.90;;;;;;5032409;28;20541;-85
2022/05/11 05:36:44;;;;;;;11.82;5.05;;;14.80;99.90;;;;;;5015820;28;20128;-84
2022/05/11 05:39:10;;;;;;;9.88;5.05;;;14.80;99.90;;;;;;5015789;28;20089;-85
2022/05/11 05:41:36;;;;;;;10.48;4.43;;;14.80;99.90;;;;;;4999062;28;20054;-84
2022/05/11 05:44:04;;;;;;;10.43;4.88;;;14.80;99.90;;;;;;5009675;28;20096;-85
2022/05/11 05:46:30;;;;;;;10.65;5.03;;;14.80;99.90;;;;;;5034088;28;20065;-86
2022/05/11 05:48:55;;;;;;;10.10;4.63;;;14.90;99.90;;;;;;4994423;28;20041;-86
2022/05/11 05:51:23;;;;;;;11.45;5.95;;;14.90;99.90;;;;;;5012310;28;20091;-85
2022/05/11 05:53:51;;;;;;;13.45;5.68;;;14.90;99.90;;;;;;5031906;28;20046;-86
2022/05/11 05:56:17;;;;;;;12.63;5.90;;;15.00;99.90;;;;;;5012314;28;20046;-86
2022/05/11 05:58:44;;;;;;;10.75;5.10;;;15.10;99.90;;;;;;5044625;28;20049;-86
2022/05/11 06:01:11;;;;;;;13.68;5.63;;;15.10;99.90;;;;;;5028555;28;20053;-86
2022/05/11 06:03:37;;;;;;;9.93;5.50;;;15.10;99.90;;;;;;5030395;28;20046;-85
2022/05/11 06:06:04;;;;;;;10.25;5.45;;;15.10;99.90;;;;;;5027107;28;20106;-84
2022/05/11 06:08:30;;;;;;;9.75;5.10;;;15.20;99.90;;;;;;5006484;28;20487;-84
2022/05/11 06:10:57;;;;;;;8.80;4.53;;;15.20;99.90;;;;;;5015348;28;20057;-83
2022/05/11 06:13:23;;;;;;;10.05;5.28;;;15.20;99.90;;;;;;5014834;28;20124;-83
2022/05/11 06:15:51;;;;;;;10.65;5.30;;;15.30;99.90;;;;;;5031203;28;20083;-84
2022/05/11 06:18:17;;;;;;;11.75;5.10;;;15.40;99.90;;;;;;5063462;28;20037;-84
2022/05/11 06:20:42;;;;;;;13.18;5.43;;;15.40;99.90;;;;;;5010135;28;20045;-83
2022/05/11 06:23:08;;;;;;;10.38;5.15;;;15.40;99.90;;;;;;5034917;28;20096;-85
2022/05/11 06:25:37;;;;;;;10.10;5.00;;;15.50;99.90;;;;;;5006649;28;20060;-88
2022/05/11 06:28:03;;;;;;;10.73;5.35;;;15.50;99.90;;;;;;5009116;28;20055;-86
2022/05/11 06:30:30;;;;;;;10.30;4.68;;;15.60;99.90;;;;;;5010719;28;20045;-83
2022/05/11 06:32:56;;;;;;;13.70;5.40;;;15.60;99.90;;;;;;5014196;28;20099;-83
2022/05/11 06:35:22;;;;;;;9.02;4.68;;;15.60;99.90;;;;;;5013845;28;20065;-83
2022/05/11 06:37:51;;;;;;;12.77;4.67;;;15.70;99.90;;;;;;5014037;28;20210;-82
2022/05/11 06:40:17;;;;;;;10.63;5.35;;;15.70;99.90;;;;;;5030920;28;20053;-83
2022/05/11 06:42:48;;;;;;;11.18;4.88;;;15.80;99.90;;;;;;5014202;28;20075;-82
2022/05/11 06:45:14;;;;;;;10.90;4.68;;;15.90;99.90;;;;;;5014824;28;20075;-84
2022/05/11 06:47:40;;;;;;;7.90;4.65;;;16.10;99.90;;;;;;5014076;28;20065;-84
2022/05/11 06:50:06;;;;;;;10.27;4.63;;;16.10;99.90;;;;;;4998023;28;20041;-83
2022/05/11 06:52:32;;;;;;;11.15;5.35;;;16.10;99.90;;;;;;5046845;28;20088;-83
2022/05/11 07:00:31;;;;;;;11.77;4.38;;;16.00;99.90;;;;;;5063848;28;20059;-83
2022/05/11 07:02:57;;;;;;;9.93;4.20;;;16.10;99.90;;;;;;4978842;28;20499;-83
2022/05/11 07:05:23;;;;;;;9.63;4.57;;;16.20;99.90;;;;;;4978374;28;20049;-83
2022/05/11 07:07:50;;;;;;;9.18;4.15;;;16.10;99.90;;;;;;4994771;28;20295;-83
2022/05/11 07:10:16;;;;;;;10.50;4.32;;;16.20;99.90;;;;;;5011268;28;20053;-84
2022/05/11 07:12:49;;;;;;;10.70;4.00;;;16.20;99.90;;;;;;5012497;28;20160;-84
2022/05/11 07:15:18;;;;;;;14.02;4.05;;;16.30;99.90;;;;;;5063931;28;20052;-84
2022/05/11 07:17:49;;;;;;;10.35;3.97;;;16.60;99.90;;;;;;5032476;28;20517;-84
2022/05/11 07:20:26;;;;;;;12.27;4.03;;;16.70;99.90;;;;;;5033843;28;20103;-83
2022/05/11 07:22:53;;;;;;;14.20;3.95;;;16.70;99.80;;;;;;5016320;28;20045;-83
2022/05/11 07:25:21;;;;;;;10.32;3.90;;;16.70;99.70;;;;;;5016726;28;20045;-83
2022/05/11 07:27:48;;;;;;;7.72;3.70;;;16.80;98.80;;;;;;5015335;28;20053;-84
2022/05/11 07:30:18;;;;;;;8.93;3.25;;;16.70;98.40;;;;;;5031578;28;20045;-82
2022/05/11 07:32:44;;;;;;;10.05;3.80;;;16.80;97.50;;;;;;5013864;28;20083;-83
2022/05/11 07:35:10;;;;;;;9.32;3.28;;;16.80;96.90;;;;;;4998301;28;20487;-82
2022/05/11 07:37:36;;;;;;;8.25;3.22;;;16.90;96.10;;;;;;5013935;28;20163;-83
2022/05/11 07:40:03;;;;;;;9.73;3.13;;;16.90;95.80;;;;;;4996916;28;20053;-82
2022/05/11 07:42:30;;;;;;;12.77;3.20;;;17.10;96.40;;;;;;4997255;28;20049;-82
2022/05/11 07:44:56;;;;;;;10.27;3.22;;;17.50;95.10;;;;;;4997655;28;20057;-82
2022/05/11 07:47:22;;;;;;;8.30;3.00;;;17.60;92.20;;;;;;5014133;28;20045;-83
2022/05/11 07:49:48;;;;;;;9.40;3.22;;;17.50;91.50;;;;;;5029864;28;20049;-82
2022/05/11 07:52:14;;;;;;;8.10;2.60;;;17.60;91.50;;;;;;5029907;28;20434;-82
2022/05/11 07:54:41;;;;;;;8.65;3.70;;;17.90;90.80;;;;;;4996242;28;20053;-82
2022/05/11 07:59:52;;;;;;;10.35;2.58;;;18.40;86.60;;;;;;5062388;28;20056;-82
2022/05/11 08:02:19;;;;;;;10.18;3.33;;;18.40;85.70;;;;;;4996972;28;20045;-82
2022/05/11 08:04:45;;;;;;;8.98;2.92;;;18.30;83.60;;;;;;5029102;28;20057;-82
2022/05/11 08:07:14;;;;;;;11.95;2.97;;;18.30;83.90;;;;;;5029809;28;20175;-82
2022/05/11 08:09:41;;;;;;;9.80;3.25;;;18.30;84.40;;;;;;5012249;28;20099;-82
2022/05/11 08:12:08;;;;;;;10.52;3.33;;;18.50;83.70;;;;;;5046304;28;20085;-82
2022/05/11 08:14:34;;;;;;;7.28;2.65;;;18.60;82.20;;;;;;5046007;28;20091;-83
2022/05/11 08:16:59;;;;;;;7.82;2.40;;;18.60;79.00;;;;;;5012621;28;20049;-83
2022/05/11 08:19:27;;;;;;;12.05;2.80;;;18.50;80.90;;;;;;5012847;28;20125;-83
2022/05/11 08:21:54;;;;;;;11.70;2.90;;;18.60;79.50;;;;;;5012644;28;20099;-83
2022/05/11 08:24:21;;;;;;;8.60;2.70;;;18.70;78.60;;;;;;5012628;28;20478;-83
2022/05/11 08:26:50;;;;;;;9.38;2.55;;;18.60;77.70;;;;;;4995660;28;20538;-82
2022/05/11 08:33:19;;;;;;;9.93;3.00;;;18.70;78.40;;;;;;4996943;28;20049;-83
2022/05/11 08:34:48;;;;;;;11.85;2.80;;;19.40;75.30;;;;;;5028741;28;20080;-83
2022/05/11 08:37:14;;;;;;;8.20;2.08;;;20.10;72.50;;;;;;5012828;28;20045;-83
2022/05/11 08:39:40;;;;;;;6.45;2.25;;;20.90;68.60;;;;;;5012050;28;20061;-84
2022/05/11 08:42:07;;;;;;;7.10;2.08;;;21.40;63.40;;;;;;5012908;28;20494;-83
2022/05/11 08:44:36;;;;;;;7.35;2.38;;;21.10;60.80;;;;;;5012197;28;20153;-83
2022/05/11 08:47:32;;;;;;;10.80;2.03;;;20.60;59.50;;;;;;5011867;28;20063;-83
2022/05/11 08:50:31;;;;;;;10.10;2.47;;;20.10;61.40;;;;;;5009217;28;20060;-83
2022/05/11 08:53:02;;;;;;;11.32;2.22;;;19.80;62.70;;;;;;5000627;28;20419;-83
2022/05/11 08:55:39;;;;;;;10.43;1.70;;;19.90;65.00;;;;;;5029031;28;20050;-83
2022/05/11 08:58:11;;;;;;;10.90;2.97;;;20.10;64.30;;;;;;5012084;28;20053;-84
2022/05/11 09:00:40;;;;;;;12.18;2.88;;;19.90;61.80;;;;;;4993293;28;20058;-83
2022/05/11 09:03:31;;;;;;;11.82;1.98;;;19.80;63.90;;;;;;4992927;28;20050;-84
2022/05/11 09:06:03;;;;;;;6.88;2.13;;;19.80;63.20;;;;;;5008744;28;20132;-83
2022/05/11 09:08:35;;;;;;;10.48;2.58;;;19.90;64.50;;;;;;4993180;28;20046;-83
2022/05/11 09:11:00;;;;;;;8.32;1.73;;;20.30;62.20;;;;;;4995568;28;20651;-83
2022/05/11 09:13:27;;;;;;;5.63;1.55;;;20.70;61.70;;;;;;5045619;28;20072;-83
2022/05/11 09:15:53;;;;;;;9.02;2.13;;;21.10;59.30;;;;;;4995703;28;20085;-82
2022/05/11 09:18:31;;;;;;;10.10;2.20;;;21.20;59.00;;;;;;5028527;28;20086;-82
2022/05/11 09:20:59;;;;;;;9.68;1.85;;;21.50;57.60;;;;;;5012103;28;20057;-83
2022/05/11 09:23:36;;;;;;;7.97;2.10;;;21.90;58.00;;;;;;5012331;28;20414;-83
2022/05/11 09:26:09;;;;;;;11.20;1.80;;;22.40;54.30;;;;;;4992342;28;20050;-83
2022/05/11 09:28:38;;;;;;;5.97;1.75;;;22.70;54.40;;;;;;4992732;28;20050;-84
2022/05/11 09:31:13;;;;;;;9.85;1.83;;;23.00;51.70;;;;;;5008265;28;20045;-83
2022/05/11 09:34:01;;;;;;;8.25;1.98;;;22.30;50.00;;;;;;4992980;28;20084;-83
2022/05/11 09:37:01;;;;;;;12.40;2.10;;;21.80;54.00;;;;;;5017718;28;20127;-83
2022/05/11 09:39:29;;;;;;;7.15;1.70;;;22.50;51.70;;;;;;5011823;28;20054;-83
2022/05/11 09:42:11;;;;;;;8.80;2.33;;;22.50;51.40;;;;;;5011790;28;20042;-82
2022/05/11 09:44:45;;;;;;;8.90;2.55;;;22.40;51.90;;;;;;5028908;28;20049;-83
2022/05/11 09:48:02;;;;;;;9.85;1.90;;;22.40;52.00;;;;;;5012105;28;20049;-84
2022/05/11 09:50:26;;;;;;;8.10;1.77;;;22.70;50.20;;;;;;5025174;28;20465;-83
2022/05/11 09:52:58;;;;;;;10.00;2.03;;;23.00;50.80;;;;;;4995316;28;20643;-83
2022/05/11 09:55:28;;;;;;;12.40;2.20;;;22.70;50.40;;;;;;5013860;28;20121;-83
2022/05/11 09:58:01;;;;;;;8.82;1.67;;;23.30;49.70;;;;;;5014634;28;20045;-83
2022/05/11 10:00:42;;;;;;;9.98;1.63;;;23.90;47.30;;;;;;5060088;28;20084;-82
2022/05/11 10:03:20;;;;;;;7.57;1.70;;;24.50;45.30;;;;;;5031551;28;20111;-83
2022/05/11 10:05:51;;;;;;;6.18;1.67;;;24.90;43.70;;;;;;5015253;28;20072;-85
2022/05/11 10:08:23;;;;;;;8.48;1.50;;;24.80;42.20;;;;;;5015276;28;20049;-83
2022/05/11 10:10:52;;;;;;;5.00;1.10;;;24.90;42.30;;;;;;5030979;28;20049;-82
2022/05/11 10:13:26;;;;;;;6.55;1.75;;;25.70;42.00;;;;;;5031967;28;20063;-82
2022/05/11 10:24:15;;;;;;;9.68;1.45;;;25.40;40.80;;;;;;5030957;28;20049;-83
2022/05/11 10:27:00;;;;;;;7.57;1.30;;;25.70;40.00;;;;;;5014768;28;20072;-83
2022/05/11 10:29:50;;;;;;;6.07;1.20;;;26.50;37.50;;;;;;5031117;28;20044;-83
2022/05/11 10:32:30;;;;;;;5.43;1.50;;;26.30;37.50;;;;;;5063557;28;20375;-83
2022/05/11 10:35:12;;;;;;;4.55;0.98;;;26.40;34.80;;;;;;5014428;28;20041;-82
2022/05/11 10:38:15;;;;;;;6.55;1.05;;;26.40;34.30;;;;;;5014771;28;20057;-83
2022/05/11 10:41:18;;;;;;;3.63;0.80;;;26.30;34.70;;;;;;5014273;28;20132;-83
2022/05/11 10:44:07;;;;;;;4.50;0.85;;;26.40;33.80;;;;;;5014446;28;20049;-83
2022/05/11 10:46:45;;;;;;;6.75;0.82;;;25.90;33.30;;;;;;5031220;28;20053;-83
2022/05/11 10:49:11;;;;;;;7.70;1.38;;;26.50;32.80;;;;;;5013862;28;20553;-83
2022/05/11 10:52:08;;;;;;;7.55;1.38;;;26.30;34.20;;;;;;5014229;28;20045;-83
2022/05/11 10:54:48;;;;;;;6.57;1.35;;;26.70;33.50;;;;;;5064177;28;20045;-83
2022/05/11 10:57:22;;;;;;;5.60;0.80;;;27.00;35.30;;;;;;5063975;28;20077;-83
2022/05/11 11:00:01;;;;;;;4.18;0.80;;;27.90;33.50;;;;;;5030728;28;20133;-83
2022/05/11 11:02:57;;;;;;;7.85;1.25;;;27.90;30.50;;;;;;5047199;28;20128;-82
2022/05/11 11:05:42;;;;;;;;;;;27.10;32.90;;;;;;5014311;28;20089;-84
2022/05/11 11:08:14;;;;;;;5.70;1.00;;;27.00;32.20;;;;;;5013486;28;19921;-83
2022/05/11 11:11:09;;;;;;;9.15;1.05;;;26.60;33.50;;;;;;5030572;28;20077;-81
2022/05/11 11:13:50;;;;;;;6.72;2.10;;;26.90;33.80;;;;;;5014058;28;20056;-81
2022/05/11 11:16:16;;;;;;;10.00;1.27;;;27.00;33.50;;;;;;5013984;28;20045;-82
2022/05/11 11:18:46;;;;;;;8.73;2.28;;;26.00;34.20;;;;;;4997666;28;20052;-83
2022/05/11 11:21:13;;;;;;;5.53;1.52;;;25.10;36.10;;;;;;5029329;28;20052;-84
2022/05/11 11:23:41;;;;;;;5.20;1.10;;;24.40;38.20;;;;;;5030601;28;20617;-84
2022/05/11 11:26:11;;;;;;;6.07;1.50;;;24.70;38.90;;;;;;5029778;28;20048;-82
2022/05/11 11:28:40;;;;;;;7.38;1.40;;;25.30;37.70;;;;;;5030412;28;20773;-83
2022/05/11 11:31:25;;;;;;;6.45;1.83;;;25.40;36.40;;;;;;5029706;28;20041;-83
2022/05/11 11:33:57;;;;;;;4.63;1.30;;;25.80;35.50;;;;;;5029923;28;20533;-83
2022/05/11 11:36:28;;;;;;;5.38;1.40;;;25.90;35.60;;;;;;5029708;28;20049;-83
2022/05/11 11:38:58;;;;;;;5.55;1.30;;;26.20;35.40;;;;;;5029457;28;20064;-84
2022/05/11 11:41:28;;;;;;;5.50;1.40;;;26.20;34.90;;;;;;5030055;28;20105;-84
2022/05/11 11:44:00;;;;;;;6.00;1.30;;;26.40;35.20;;;;;;5012860;28;20046;-84
2022/05/11 11:46:42;;;;;;;4.50;1.30;;;27.00;35.10;;;;;;5029910;28;20046;-84
2022/05/11 11:49:32;;;;;;;6.07;1.23;;;27.10;33.60;;;;;;5029562;28;20127;-82
2022/05/11 11:52:00;;;;;;;7.18;1.10;;;27.50;33.10;;;;;;5029480;28;20488;-84
2022/05/11 11:54:38;;;;;;;4.40;1.23;;;27.80;32.60;;;;;;5029468;28;20056;-84
2022/05/11 11:57:25;;;;;;;5.72;1.20;;;27.60;30.50;;;;;;5029145;28;20111;-83
2022/05/11 11:59:54;;;;;;;11.68;1.85;;;27.70;32.50;;;;;;5029680;28;20037;-83
2022/05/11 12:02:37;;;;;;;5.25;1.30;;;27.40;32.50;;;;;;5012550;28;20053;-83
2022/05/11 12:05:27;;;;;;;6.43;1.23;;;27.40;32.70;;;;;;5012122;28;20494;-83
2022/05/11 12:16:56;;;;;;;9.35;1.25;;;26.90;32.70;;;;;;5028239;28;20092;-81
2022/05/11 12:19:25;;;;;;;9.85;1.40;;;25.90;34.00;;;;;;5012502;28;20053;-82
2022/05/11 12:22:02;;;;;;;7.38;1.33;;;25.00;35.60;;;;;;5029311;28;20494;-82
2022/05/11 12:24:37;;;;;;;7.07;1.88;;;24.30;37.30;;;;;;5013119;28;20045;-83
2022/05/11 12:27:07;;;;;;;8.20;1.83;;;24.90;36.00;;;;;;5028228;28;20103;-83
2022/05/11 12:32:33;;;;;;;9.93;1.67;;;25.00;35.90;;;;;;5048106;28;20127;-82
2022/05/11 12:35:13;;;;;;;5.60;1.27;;;24.60;38.50;;;;;;5012931;28;20049;-83
2022/05/11 12:37:39;;;;;;;7.03;1.35;;;25.80;36.40;;;;;;5012619;28;20053;-82
2022/05/11 12:40:12;;;;;;;10.57;1.63;;;26.40;35.70;;;;;;5044864;28;20092;-82
2022/05/11 12:42:56;;;;;;;11.60;1.77;;;26.20;35.10;;;;;;5012768;28;20115;-84
2022/05/11 12:45:29;;;;;;;11.00;2.00;;;26.50;34.00;;;;;;5012731;28;20041;-84
2022/05/11 12:47:56;;;;;;;9.07;1.88;;;26.50;34.50;;;;;;5045652;28;20053;-83
2022/05/11 12:50:37;;;;;;;13.35;2.75;;;26.50;34.50;;;;;;5012258;28;20111;-83
2022/05/11 12:53:15;;;;;;;6.90;1.48;;;25.20;35.40;;;;;;5028930;28;20048;-83
2022/05/11 12:55:43;;;;;;;8.00;1.30;;;24.90;37.20;;;;;;5029362;28;20052;-82
2022/05/11 12:58:20;;;;;;;7.35;1.58;;;25.00;36.50;;;;;;5028693;28;20108;-83
2022/05/11 13:00:46;;;;;;;10.23;1.52;;;24.60;37.10;;;;;;5013178;28;20140;-84
2022/05/11 13:03:34;;;;;;;6.70;1.35;;;24.10;38.00;;;;;;5012739;28;20048;-83
2022/05/11 13:06:07;;;;;;;8.88;1.63;;;23.50;38.70;;;;;;5034246;28;20057;-83
2022/05/11 13:08:46;;;;;;;8.63;1.42;;;22.70;40.40;;;;;;5019119;28;20099;-83
2022/05/11 13:11:15;;;;;;;9.13;2.05;;;23.40;40.10;;;;;;5017190;28;20191;-83
2022/05/11 13:13:43;;;;;;;12.05;1.77;;;23.20;39.90;;;;;;5050012;28;20049;-84
2022/05/11 13:16:20;;;;;;;8.90;1.98;;;23.20;40.40;;;;;;5032230;28;20418;-84
2022/05/11 13:18:46;;;;;;;11.18;2.05;;;23.90;39.30;;;;;;5014586;28;20503;-84
2022/05/11 13:21:13;;;;;;;8.45;1.63;;;24.70;38.10;;;;;;5030806;28;20487;-84
2022/05/11 13:23:49;;;;;;;6.95;1.67;;;25.50;36.00;;;;;;5030028;28;20041;-84
2022/05/11 13:26:36;;;;;;;5.68;2.03;;;25.30;36.00;;;;;;5028899;28;20521;-83
2022/05/11 13:29:26;;;;;;;9.38;2.40;;;24.80;35.50;;;;;;5012471;28;20056;-85
2022/05/11 13:32:08;;;;;;;7.72;2.10;;;25.40;35.10;;;;;;5032952;28;20049;-84
2022/05/11 13:34:40;;;;;;;6.97;1.92;;;26.60;33.60;;;;;;5049579;28;20053;-84
2022/05/11 13:37:23;;;;;;;6.63;1.70;;;27.20;32.00;;;;;;5015543;28;20041;-86
2022/05/11 13:39:50;;;;;;;12.00;2.10;;;26.80;32.40;;;;;;5065651;28;20065;-84